Iredell, Texas
Current Conditions -  °F | °C
As of 3:55 AM on Sunday 23 Nov 2014 (Local Time) from KSEP Reporting Station
Clear Clear  
Wind Chill: 52°   Ceiling: Unl
Heat Index: 52°   Visibility: 10mi
Dew Point: 50°   Wind: 3mph
Humidity: 94%   Direction: 170°S
Pressure: 29.64"   Gusts: NA
Location:  31.99°N, 97.87°W
Report Text: KSEP 230955Z AUTO 17003KT 10SM CLR 11/10 A2964 RMK AO2 P0001 T01100100
Loading
Personal Weather Stations






























Interactive Weather Map New forecast layout! Learn more

10-Day Weather Forecast

Advertisements
Track Severe Weather on mobile